• Join FlightAware (Why Join?)
  • Login
  • US Flag 
07:22PM EDT


 

Airport Tracker/Info


-or-


 

Live Flight TrackerFlight Track Log ✈ SWA1810 ✈ 23-Apr-2013 ✈ KCMH - KPHX

Flight Track Log - Related Links

Times and Time Zones

All times are in EDT time to prevent confusion due to time zone crossing. See the SWA1810 flight status page for this flight to view local times or setup timezone preferences in your user account.

Time Position Orientation Groundspeed Altitude Reporting Facility
EDT Latitude Longitude Course Direction KTS MPH feet Rate Location/Type
12:59PM 39.9967 -82.9339 273° West 166 191 2,100  Level Indianapolis Center
01:00PM 39.9997 -83.0133 273° West 232 267 4,200 2,340 Climbing Indianapolis Center
01:01PM 40.0067 -83.0842 277° West 215 247 7,000 3,000 Climbing Indianapolis Center
01:02PM 40.0161 -83.1964 276° West 268 308 10,500 2,340 Climbing Indianapolis Center
01:03PM 40.0086 -83.3075 265° West 314 361 11,900 2,040 Climbing Indianapolis Center
01:04PM 39.9928 -83.4325 261° West 349 402 14,700 2,640 Climbing Indianapolis Center
01:05PM 39.9756 -83.5614 260° West 363 418 17,400 2,220 Climbing Indianapolis Center
01:06PM 39.9575 -83.6964 260° West 379 436 19,300 1,860 Climbing Indianapolis Center
01:08PM 39.9389 -83.8417 261° West 404 465 21,300 1,920 Climbing Indianapolis Center
01:09PM 39.9164 -84.0150 260° West 412 474 23,300 2,160 Climbing Indianapolis Center
01:10PM 39.8964 -84.1608 260° West 407 468 25,800 1,260 Climbing Indianapolis Center
01:11PM 39.8769 -84.3050 260° West 401 461 26,000 60 Climbing Indianapolis Center
01:12PM 39.8575 -84.4497 260° West 404 465 26,000 120 Level Indianapolis Center
01:13PM 39.8367 -84.5933 259° West 403 464 26,300 900 Climbing Indianapolis Center
01:14PM 39.8169 -84.7389 260° West 404 465 27,900 2,520 Climbing Indianapolis Center
01:15PM 39.7967 -84.8742 259° West 381 438 31,500 2,640 Climbing Indianapolis Center
01:16PM 39.7800 -84.9989 260° West 351 404 33,400 1,260 Climbing Indianapolis Center
01:17PM 39.7597 -85.1475 260° West 355 409 34,200 1,080 Climbing Indianapolis Center
01:18PM 39.7397 -85.2786 259° West 365 420 35,700 840 Climbing Indianapolis Center
01:19PM 39.7219 -85.4067 260° West 359 413 36,000 120 Climbing Indianapolis Center
01:20PM 39.7050 -85.5319 260° West 352 405 36,000  Level Indianapolis Center
01:21PM 39.6858 -85.6464 258° West 356 410 36,000  Level Indianapolis Center
01:22PM 39.6522 -85.7944 254° West 358 412 36,000  Level Indianapolis Center
01:23PM 39.6131 -85.9142 247° West 360 414 36,000  Level Indianapolis Center
01:24PM 39.5742 -86.0319 247° West 356 410 36,000  Level Indianapolis Center
01:25PM 39.5353 -86.1514 247° West 358 412 36,000  Level Indianapolis Center
01:26PM 39.4978 -86.2711 248° West 357 411 36,000  Level Indianapolis Center
01:27PM 39.4606 -86.3931 248° West 362 417 36,000  Level Indianapolis Center
01:28PM 39.4233 -86.5142 248° West 362 417 36,000  Level Indianapolis Center
01:29PM 39.3861 -86.6356 248° West 363 418 36,000  Level Indianapolis Center
01:30PM 39.3553 -86.7869 255° West 359 413 36,000  Level Indianapolis Center
01:31PM 39.3397 -86.9164 261° West 362 417 36,000  Level Indianapolis Center
01:32PM 39.3247 -87.0481 262° West 368 423 36,000  Level Indianapolis Center
01:33PM 39.3097 -87.1781 262° West 367 422 36,000  Level Indianapolis Center
01:34PM 39.2931 -87.3094 261° West 369 425 36,000  Level Indianapolis Center
01:35PM 39.2764 -87.4403 261° West 370 426 36,000  Level Indianapolis Center
01:36PM 39.2603 -87.5717 261° West 371 427 36,000  Level Indianapolis Center
01:37PM 39.2442 -87.7028 261° West 370 426 36,000  Level Indianapolis Center
01:38PM 39.2244 -87.8625 261° West 375 432 36,000  Level Indianapolis Center
01:39PM 39.2067 -87.9947 260° West 374 430 36,000  Level Indianapolis Center
01:40PM 39.1900 -88.1269 261° West 372 428 36,000  Level Kansas City Center
01:42PM 39.1728 -88.2608 261° West 376 433 36,000  Level Kansas City Center
01:43PM 39.1558 -88.3914 261° West 371 427 36,000  Level Kansas City Center
01:44PM 39.1367 -88.5247 260° West 374 430 36,000  Level Kansas City Center
01:45PM 39.1189 -88.6619 261° West 378 435 36,000  Level Kansas City Center
01:46PM 39.1008 -88.7950 260° West 378 435 36,000  Level Kansas City Center
01:47PM 39.0786 -88.9556 260° West 380 437 36,000  Level Kansas City Center
01:48PM 39.0603 -89.0892 260° West 381 438 36,000  Level Kansas City Center
01:49PM 39.0411 -89.2342 260° West 382 440 36,000  Level Kansas City Center
01:50PM 39.0219 -89.3683 260° West 384 442 36,000  Level Kansas City Center
01:51PM 39.0019 -89.5100 260° West 378 435 36,000  Level Kansas City Center
01:52PM 38.9839 -89.6431 260° West 379 436 36,000  Level Kansas City Center
01:53PM 38.9647 -89.7747 259° West 377 434 36,000  Level Kansas City Center
01:54PM 38.9442 -89.9167 259° West 377 434 36,000  Level Kansas City Center
01:55PM 38.9258 -90.0453 260° West 379 436 36,000  Level Kansas City Center
01:56PM 38.9061 -90.1892 260° West 374 430 36,000  Level Kansas City Center
01:57PM 38.8869 -90.3228 260° West 378 435 36,000  Level Kansas City Center
01:58PM 38.8675 -90.4572 260° West 380 437 36,000  Level Kansas City Center
01:59PM 38.8483 -90.5903 260° West 375 432 36,000  Level Kansas City Center
02:00PM 38.8303 -90.7272 260° West 377 434 36,000  Level Kansas City Center
02:01PM 38.8117 -90.8622 260° West 383 441 36,000  Level Kansas City Center
02:02PM 38.7936 -90.9958 260° West 385 443 36,000  Level Kansas City Center
02:03PM 38.7758 -91.1294 260° West 383 441 36,000 600 Level Kansas City Center
02:04PM 38.7572 -91.2614 260° West 381 438 37,300 960 Climbing Kansas City Center
02:05PM 38.7361 -91.4186 260° West 377 434 38,000 300 Climbing Kansas City Center
02:06PM 38.7183 -91.5503 260° West 376 433 38,000  Level Kansas City Center
02:07PM 38.7022 -91.6833 261° West 374 430 38,000  Level Kansas City Center
02:08PM 38.6828 -91.8122 259° West 371 427 38,000  Level Kansas City Center
02:09PM 38.6636 -91.9467 260° West 378 435 38,000  Level Kansas City Center
02:10PM 38.6453 -92.0764 260° West 374 430 38,000  Level Kansas City Center
02:11PM 38.6269 -92.2056 260° West 372 428 38,000  Level Kansas City Center
02:12PM 38.6044 -92.3600 259° West 369 425 38,000  Level Kansas City Center
02:13PM 38.5853 -92.4850 259° West 364 419 38,000  Level Kansas City Center
02:14PM 38.5669 -92.6136 260° West 365 420 38,000  Level Kansas City Center
02:15PM 38.5478 -92.7436 259° West 368 423 38,000  Level Kansas City Center
02:16PM 38.5269 -92.8733 258° West 371 427 38,000  Level Kansas City Center
02:18PM 38.5072 -93.0025 259° West 371 427 38,000  Level Kansas City Center
02:19PM 38.4878 -93.1325 259° West 373 429 38,000  Level Kansas City Center
02:20PM 38.4639 -93.2883 259° West 373 429 38,000  Level Kansas City Center
02:21PM 38.4439 -93.4172 259° West 371 427 38,000  Level Kansas City Center
02:22PM 38.4247 -93.5481 259° West 374 430 38,000  Level Kansas City Center
02:23PM 38.4033 -93.6778 258° West 373 429 38,000  Level Kansas City Center
02:24PM 38.3825 -93.8058 258° West 371 427 38,000  Level Kansas City Center
02:25PM 38.3631 -93.9331 259° West 367 422 38,000  Level Kansas City Center
02:26PM 38.3419 -94.0619 258° West 369 425 38,000  Level Kansas City Center
02:27PM 38.3197 -94.2025 259° West 368 423 38,000  Level Kansas City Center
02:28PM 38.3006 -94.3236 259° West 366 421 38,000  Level Kansas City Center
02:29PM 38.2767 -94.4658 258° West 366 421 38,000  Level Kansas City Center
02:30PM 38.2567 -94.5869 258° West 366 421 38,000  Level Kansas City Center
02:31PM 38.2386 -94.7067 259° West 364 419 38,000  Level Kansas City Center
02:32PM 38.2161 -94.8483 259° West 364 419 38,000  Level Kansas City Center
02:33PM 38.1969 -94.9678 258° West 362 417 38,000  Level Kansas City Center
02:34PM 38.1744 -95.1081 259° West 362 417 38,000  Level Kansas City Center
02:35PM 38.1550 -95.2269 258° West 359 413 38,000  Level Kansas City Center
02:36PM 38.1314 -95.3642 258° West 357 411 38,000  Level Kansas City Center
02:37PM 38.1106 -95.4842 258° West 358 412 38,000  Level Kansas City Center
02:38PM 38.0900 -95.6000 257° West 357 411 38,000  Level Kansas City Center
02:39PM 38.0667 -95.7375 258° West 356 410 38,000  Level Kansas City Center
02:40PM 38.0467 -95.8542 258° West 354 407 38,000  Level Kansas City Center
02:41PM 38.0233 -95.9911 258° West 356 410 38,000  Level Kansas City Center
02:42PM 38.0044 -96.1097 259° West 357 411 38,000  Level Kansas City Center
02:43PM 37.9811 -96.2431 258° West 357 411 38,000  Level Kansas City Center
02:44PM 37.9606 -96.3664 258° West 357 411 38,000  Level Kansas City Center
02:45PM 37.9394 -96.4900 258° West 359 413 38,000  Level Kansas City Center
02:46PM 37.9197 -96.6131 259° West 357 411 38,000  Level Kansas City Center
02:47PM 37.8983 -96.7361 258° West 357 411 38,000  Level Kansas City Center
02:48PM 37.8778 -96.8572 258° West 353 406 38,000  Level Kansas City Center
02:49PM 37.8561 -96.9789 257° West 354 407 38,000  Level Kansas City Center
02:50PM 37.8336 -97.1019 257° West 358 412 38,000  Level Kansas City Center
02:51PM 37.8078 -97.2475 257° West 355 409 38,000  Level Kansas City Center
02:52PM 37.7858 -97.3686 257° West 353 406 38,000  Level Kansas City Center
02:53PM 37.7631 -97.4881 256° West 354 407 38,000  Level Kansas City Center
02:55PM 37.7400 -97.6100 257° West 355 409 38,000  Level Kansas City Center
02:56PM 37.7169 -97.7325 257° West 357 411 38,000  Level Kansas City Center
02:57PM 37.6922 -97.8558 256° West 359 413 38,000  Level Kansas City Center
02:58PM 37.6697 -97.9789 257° West 359 413 38,000  Level Kansas City Center
02:59PM 37.6408 -98.1256 256° West 359 413 38,000  Level Kansas City Center
03:00PM 37.6217 -98.2292 257° West 354 407 38,000  Level Kansas City Center
03:01PM 37.5958 -98.3506 255° West 356 410 38,000  Level Kansas City Center
03:02PM 37.5678 -98.4936 256° West 352 405 38,000  Level Kansas City Center
03:03PM 37.5439 -98.6108 256° West 347 399 38,000  Level Kansas City Center
03:04PM 37.5200 -98.7300 256° West 348 400 38,000  Level Kansas City Center
03:05PM 37.4950 -98.8486 255° West 350 403 38,000  Level Kansas City Center
03:06PM 37.4717 -98.9692 256° West 352 405 38,000  Level Kansas City Center
03:07PM 37.4469 -99.0894 256° West 354 407 38,000  Level Kansas City Center
03:08PM 37.4222 -99.2097 256° West 355 409 38,000  Level Kansas City Center
03:09PM 37.3981 -99.3308 256° West 356 410 38,000  Level Kansas City Center
03:10PM 37.3700 -99.4631 255° West 356 410 38,000  Level Kansas City Center
03:11PM 37.3408 -99.5981 255° West 356 410 38,000  Level Kansas City Center
03:12PM 37.3178 -99.7133 256° West 356 410 38,000  Level Kansas City Center
03:13PM 37.2878 -99.8494 255° West 359 413 38,000  Level Kansas City Center
03:15PM 37.2389 -100.0822 255° West 361 415 38,000  Level Kansas City Center
03:16PM 37.2094 -100.2189 255° West 364 419 38,000  Level Kansas City Center
03:17PM 37.1842 -100.3356 255° West 362 417 38,000  Level Kansas City Center
03:18PM 37.1553 -100.4708 255° West 359 413 38,000  Level Kansas City Center
03:19PM 37.1289 -100.5856 254° West 357 411 38,000  Level Kansas City Center
03:20PM 37.1044 -100.7014 255° West 358 412 38,000  Level Kansas City Center
03:21PM 37.0742 -100.8367 254° West 359 413 38,000  Level Kansas City Center
03:22PM 37.0483 -100.9525 254° West 359 413 38,000  Level Kansas City Center
03:23PM 37.0108 -101.0825 250° West 356 410 38,000  Level Kansas City Center
03:24PM 36.9864 -101.1981 255° West 357 411 38,000  Level Kansas City Center
03:25PM 36.9622 -101.3142 255° West 358 412 38,000  Level Kansas City Center
03:26PM 36.9325 -101.4481 255° West 358 412 38,000  Level Kansas City Center
03:27PM 36.9069 -101.5619 254° West 356 410 38,000  Level Kansas City Center
03:28PM 36.8786 -101.6964 255° West 358 412 38,000  Level Kansas City Center
03:29PM 36.8744 -101.7161 255° West 358 412 38,000  Level Albuquerque Center
03:30PM 36.8444 -101.8486 254° West 356 410 38,000  Level Albuquerque Center
03:31PM 36.8200 -101.9644 255° West 357 411 38,000  Level Albuquerque Center
03:32PM 36.7897 -102.0975 254° West 358 412 38,000  Level Albuquerque Center
03:33PM 36.7625 -102.2200 255° West 357 411 38,000  Level Albuquerque Center
03:34PM 36.7358 -102.3394 254° West 358 412 38,000  Level Albuquerque Center
03:35PM 36.7075 -102.4603 254° West 364 419 38,000  Level Albuquerque Center
03:36PM 36.6769 -102.6031 255° West 366 421 38,000  Level Albuquerque Center
03:37PM 36.6500 -102.7206 254° West 367 422 38,000  Level Albuquerque Center
03:38PM 36.6183 -102.8478 253° West 364 419 38,000  Level Albuquerque Center
03:39PM 36.5917 -102.9706 255° West 366 421 38,000  Level Albuquerque Center
03:40PM 36.5639 -103.0931 254° West 364 419 38,000  Level Albuquerque Center
03:41PM 36.5353 -103.2156 254° West 366 421 38,000  Level Albuquerque Center
03:42PM 36.5064 -103.3367 254° West 364 419 38,000  Level Albuquerque Center
03:43PM 36.4775 -103.4583 254° West 365 420 38,000  Level Albuquerque Center
03:44PM 36.4447 -103.6000 254° West 363 418 38,000  Level Albuquerque Center
03:45PM 36.4150 -103.7214 253° West 364 419 38,000  Level Albuquerque Center
03:46PM 36.3850 -103.8433 253° West 367 422 38,000  Level Albuquerque Center
03:47PM 36.3567 -103.9669 254° West 368 423 38,000  Level Albuquerque Center
03:48PM 36.3264 -104.0878 253° West 368 423 38,000  Level Albuquerque Center
03:49PM 36.2967 -104.2106 253° West 369 425 38,000  Level Albuquerque Center
03:50PM 36.2600 -104.3536 252° West 373 429 38,000  Level Albuquerque Center
03:51PM 36.2294 -104.4767 253° West 373 429 38,000  Level Albuquerque Center
03:52PM 36.2008 -104.5972 254° West 366 421 38,000  Level Albuquerque Center
03:54PM 36.1697 -104.7178 252° West 367 422 38,000  Level Albuquerque Center
03:55PM 36.1403 -104.8392 253° West 366 421 38,000  Level Albuquerque Center
03:56PM 36.1092 -104.9633 253° West 372 428 38,000  Level Albuquerque Center
03:57PM 36.0767 -105.0864 252° West 375 432 38,000  Level Albuquerque Center
03:58PM 36.0406 -105.2289 253° West 371 427 38,000  Level Albuquerque Center
03:59PM 36.0094 -105.3517 253° West 372 428 38,000  Level Albuquerque Center
04:00PM 35.9778 -105.4750 252° West 374 430 38,000  Level Albuquerque Center
04:01PM 35.9511 -105.5797 253° West 371 427 38,000  Level Albuquerque Center
04:02PM 35.9131 -105.7228 252° West 368 423 38,000  Level Albuquerque Center
04:03PM 35.8836 -105.8406 253° West 363 418 38,000  Level Albuquerque Center
04:04PM 35.8525 -105.9597 252° West 364 419 38,000  Level Albuquerque Center
04:05PM 35.8219 -106.0764 252° West 363 418 38,000  Level Albuquerque Center
04:06PM 35.7886 -106.2094 253° West 362 417 38,000  Level Albuquerque Center
04:07PM 35.7581 -106.3217 251° West 362 417 38,000  Level Albuquerque Center
04:08PM 35.7233 -106.4542 252° West 363 418 38,000  Level Albuquerque Center
04:09PM 35.6922 -106.5669 251° West 364 419 38,000  Level Albuquerque Center
04:10PM 35.6575 -106.6997 252° West 365 420 38,000  Level Albuquerque Center
04:11PM 35.6292 -106.8058 252° West 364 419 38,000  Level Albuquerque Center
04:12PM 35.5981 -106.9219 252° West 361 415 38,000  Level Albuquerque Center
04:13PM 35.5669 -107.0372 252° West 360 414 38,000  Level Albuquerque Center
04:14PM 35.5292 -107.1711 251° West 351 404 38,000  Level Albuquerque Center
04:15PM 35.4978 -107.2892 252° West 354 407 38,000  Level Albuquerque Center
04:16PM 35.4664 -107.4014 251° West 359 413 38,000  Level Albuquerque Center
04:17PM 35.4292 -107.5333 251° West 364 419 38,000  Level Albuquerque Center
04:18PM 35.3978 -107.6475 251° West 367 422 38,000  Level Albuquerque Center
04:19PM 35.3661 -107.7592 251° West 365 420 38,000  Level Albuquerque Center
04:20PM 35.3308 -107.8892 252° West 361 415 38,000  Level Albuquerque Center
04:21PM 35.2992 -107.9992 251° West 358 412 38,000  Level Albuquerque Center
04:22PM 35.2625 -108.1317 251° West 364 419 38,000  Level Albuquerque Center
04:23PM 35.2300 -108.2456 251° West 367 422 38,000  Level Albuquerque Center
04:24PM 35.1922 -108.3783 251° West 369 425 38,000  Level Albuquerque Center
04:26PM 35.1542 -108.5015 249° West  Level FlightAware Approximate
04:27PM 35.1236 -108.6197 249° West 362 417 38,000  Level Albuquerque Center
04:28PM 35.0908 -108.7300 250° West 361 415 38,000 -540 Level Albuquerque Center
04:29PM 35.0592 -108.8406 251° West 360 414 37,000 -540 Descending Albuquerque Center
04:30PM 35.0219 -108.9692 251° West 359 413 36,900 -540 Descending Albuquerque Center
04:31PM 34.9900 -109.0778 250° West 357 411 36,000 -480 Descending Albuquerque Center
04:32PM 34.9497 -109.2053 249° West 359 413 36,000  Level Albuquerque Center
04:33PM 34.9094 -109.3136 246° West 364 419 36,000  Level Albuquerque Center
04:34PM 34.8644 -109.4408 247° West 365 420 36,000  Level Albuquerque Center
04:35PM 34.8222 -109.5467 244° Southwest 363 418 36,000  Level Albuquerque Center
04:36PM 34.7828 -109.6539 246° West 363 418 36,000  Level Albuquerque Center
04:37PM 34.7364 -109.7808 246° West 366 421 36,000  Level Albuquerque Center
04:38PM 34.6969 -109.8883 246° West 365 420 36,000  Level Albuquerque Center
04:39PM 34.6500 -110.0119 245° Southwest 362 417 36,000  Level Albuquerque Center
04:40PM 34.6125 -110.1233 248° West 371 427 36,000 -540 Level Albuquerque Center
04:41PM 34.5675 -110.2506 247° West 366 421 35,000 -1,260 Descending Albuquerque Center
04:42PM 34.5256 -110.3447 242° Southwest 343 395 33,500 -1,500 Descending Albuquerque Center
04:43PM 34.4881 -110.4503 247° West 364 419 31,900 -1,920 Descending Albuquerque Center
04:44PM 34.4431 -110.5753 246° West 346 398 29,600 -2,100 Descending Albuquerque Center
04:45PM 34.4033 -110.6767 245° Southwest 336 387 27,700 -1,800 Descending Albuquerque Center
04:46PM 34.3572 -110.7822 242° Southwest 351 404 26,000 -1,980 Descending Albuquerque Center
04:47PM 34.2972 -110.8714 231° Southwest 344 396 23,700 -2,040 Descending Albuquerque Center
04:48PM 34.2331 -110.9531 226° Southwest 339 390 21,900 -1,800 Descending Albuquerque Center
04:49PM 34.1714 -111.0333 227° Southwest 333 383 20,100 -2,040 Descending Albuquerque Center
04:50PM 34.0956 -111.1308 227° Southwest 330 380 17,800 -2,040 Descending Albuquerque Center
04:51PM 34.0319 -111.2114 226° Southwest 332 382 16,000 -1,800 Descending Albuquerque Center
04:52PM 33.9711 -111.2903 227° Southwest 324 373 14,200 -1,740 Descending Albuquerque Center
04:53PM 33.9114 -111.3661 227° Southwest 313 360 12,500 -1,320 Descending Albuquerque Center
04:54PM 33.8500 -111.4333 222° Southwest 294 338 11,500 -900 Descending Albuquerque Center
04:55PM 33.7836 -111.4886 215° Southwest 289 333 10,700 -720 Descending Albuquerque Center
04:56PM 33.7228 -111.5411 216° Southwest 270 311 10,100 -840 Descending Albuquerque Center
04:57PM 33.6672 -111.5861 214° Southwest 243 280 9,000 -1,080 Descending Albuquerque Center
04:58PM 33.5883 -111.6003 189° South 237 273 7,900 -1,020 Descending Albuquerque Center
05:00PM 33.5289 -111.6136 191° South 220 253 6,900 -1,020 Descending Albuquerque Center
05:01PM 33.4714 -111.6247 189° South 211 243 5,800 -1,140 Descending Albuquerque Center
05:02PM 33.4417 -111.6756 235° Southwest 205 236 4,600 -840 Descending Albuquerque Center
05:03PM 33.4419 -111.7406 270° West 196 226 4,100 -300 Descending Albuquerque Center
05:04PM 33.4403 -111.8056 268° West 195 224 4,100 -480 Level Albuquerque Center
05:05PM 33.4411 -111.8667 271° West 187 215 3,200 -1,020 Descending Albuquerque Center
05:06PM 33.4411 -111.9394 270° West 183 211 2,100 -960 Descending Albuquerque Center
05:07PM 33.4400 -111.9872 268° West 147 169 1,300 -780 Descending Albuquerque Center
05:09PM 33.4343 -112.0116 270° West  Level Estimated